sensor_id;sensor_type;location;lat;lon;timestamp;P1;durP1;ratioP1;P2;durP2;ratioP2
70757;SDS011;59316;52.964;7.102;2023-04-06T00:04:00;14.50;;;7.18;;
70757;SDS011;59316;52.964;7.102;2023-04-06T00:09:21;15.77;;;7.78;;
70757;SDS011;59316;52.964;7.102;2023-04-06T00:14:42;14.75;;;7.47;;
70757;SDS011;59316;52.964;7.102;2023-04-06T00:20:04;15.02;;;7.28;;
70757;SDS011;59316;52.964;7.102;2023-04-06T00:25:26;18.30;;;8.30;;
70757;SDS011;59316;52.964;7.102;2023-04-06T00:30:48;13.10;;;7.28;;
70757;SDS011;59316;52.964;7.102;2023-04-06T00:36:09;15.88;;;8.02;;
70757;SDS011;59316;52.964;7.102;2023-04-06T00:41:31;16.20;;;8.02;;
70757;SDS011;59316;52.964;7.102;2023-04-06T00:46:53;15.80;;;7.82;;
70757;SDS011;59316;52.964;7.102;2023-04-06T00:52:15;15.48;;;7.28;;
70757;SDS011;59316;52.964;7.102;2023-04-06T01:03:00;15.68;;;7.72;;
70757;SDS011;59316;52.964;7.102;2023-04-06T01:08:29;17.33;;;7.70;;
70757;SDS011;59316;52.964;7.102;2023-04-06T01:19:45;15.20;;;8.05;;
70757;SDS011;59316;52.964;7.102;2023-04-06T01:25:14;16.65;;;8.57;;
70757;SDS011;59316;52.964;7.102;2023-04-06T01:30:44;15.38;;;7.68;;
70757;SDS011;59316;52.964;7.102;2023-04-06T01:42:01;15.23;;;7.53;;
70757;SDS011;59316;52.964;7.102;2023-04-06T01:52:47;16.55;;;7.85;;
70757;SDS011;59316;52.964;7.102;2023-04-06T01:58:09;16.88;;;8.52;;
70757;SDS011;59316;52.964;7.102;2023-04-06T02:03:31;14.50;;;7.95;;
70757;SDS011;59316;52.964;7.102;2023-04-06T02:08:59;17.92;;;7.95;;
70757;SDS011;59316;52.964;7.102;2023-04-06T02:14:21;16.55;;;8.52;;
70757;SDS011;59316;52.964;7.102;2023-04-06T02:19:48;20.92;;;8.95;;
70757;SDS011;59316;52.964;7.102;2023-04-06T02:25:09;15.10;;;8.00;;
70757;SDS011;59316;52.964;7.102;2023-04-06T02:30:32;13.30;;;8.02;;
70757;SDS011;59316;52.964;7.102;2023-04-06T02:35:53;18.75;;;8.02;;
70757;SDS011;59316;52.964;7.102;2023-04-06T02:41:15;18.02;;;8.90;;
70757;SDS011;59316;52.964;7.102;2023-04-06T02:46:37;20.45;;;8.85;;
70757;SDS011;59316;52.964;7.102;2023-04-06T02:51:59;17.90;;;8.45;;
70757;SDS011;59316;52.964;7.102;2023-04-06T02:57:25;16.80;;;8.00;;
70757;SDS011;59316;52.964;7.102;2023-04-06T03:02:47;17.40;;;8.88;;
70757;SDS011;59316;52.964;7.102;2023-04-06T03:08:10;20.90;;;9.10;;
70757;SDS011;59316;52.964;7.102;2023-04-06T03:13:36;17.20;;;7.93;;
70757;SDS011;59316;52.964;7.102;2023-04-06T03:18:58;14.85;;;8.23;;
70757;SDS011;59316;52.964;7.102;2023-04-06T03:24:20;15.85;;;8.23;;
70757;SDS011;59316;52.964;7.102;2023-04-06T03:29:42;15.10;;;7.88;;
70757;SDS011;59316;52.964;7.102;2023-04-06T03:35:07;15.52;;;7.95;;
70757;SDS011;59316;52.964;7.102;2023-04-06T03:40:30;17.77;;;8.00;;
70757;SDS011;59316;52.964;7.102;2023-04-06T03:45:52;16.63;;;7.63;;
70757;SDS011;59316;52.964;7.102;2023-04-06T03:51:14;13.63;;;7.13;;
70757;SDS011;59316;52.964;7.102;2023-04-06T03:56:35;13.65;;;7.22;;
70757;SDS011;59316;52.964;7.102;2023-04-06T04:01:57;17.27;;;7.95;;
70757;SDS011;59316;52.964;7.102;2023-04-06T04:07:18;13.45;;;7.65;;
70757;SDS011;59316;52.964;7.102;2023-04-06T04:12:39;13.07;;;7.38;;
70757;SDS011;59316;52.964;7.102;2023-04-06T04:18:01;13.90;;;8.10;;
70757;SDS011;59316;52.964;7.102;2023-04-06T04:23:23;17.00;;;8.38;;
70757;SDS011;59316;52.964;7.102;2023-04-06T04:28:44;16.02;;;8.52;;
70757;SDS011;59316;52.964;7.102;2023-04-06T04:34:07;17.47;;;8.80;;
70757;SDS011;59316;52.964;7.102;2023-04-06T04:39:29;16.45;;;8.23;;
70757;SDS011;59316;52.964;7.102;2023-04-06T04:44:56;14.38;;;8.05;;
70757;SDS011;59316;52.964;7.102;2023-04-06T04:50:27;16.02;;;8.43;;
70757;SDS011;59316;52.964;7.102;2023-04-06T04:55:50;13.85;;;8.13;;
70757;SDS011;59316;52.964;7.102;2023-04-06T05:01:13;17.15;;;8.38;;
70757;SDS011;59316;52.964;7.102;2023-04-06T05:06:36;15.88;;;8.35;;
70757;SDS011;59316;52.964;7.102;2023-04-06T05:11:58;18.83;;;8.38;;
70757;SDS011;59316;52.964;7.102;2023-04-06T05:22:43;14.80;;;8.23;;
70757;SDS011;59316;52.964;7.102;2023-04-06T05:28:05;16.73;;;8.48;;
70757;SDS011;59316;52.964;7.102;2023-04-06T05:38:58;16.17;;;7.72;;
70757;SDS011;59316;52.964;7.102;2023-04-06T05:44:31;15.50;;;8.27;;
70757;SDS011;59316;52.964;7.102;2023-04-06T05:49:59;18.98;;;9.02;;
70757;SDS011;59316;52.964;7.102;2023-04-06T05:55:26;15.88;;;8.25;;
70757;SDS011;59316;52.964;7.102;2023-04-06T06:01:00;16.40;;;8.83;;
70757;SDS011;59316;52.964;7.102;2023-04-06T06:06:30;17.70;;;8.10;;
70757;SDS011;59316;52.964;7.102;2023-04-06T06:12:09;12.40;;;7.22;;
70757;SDS011;59316;52.964;7.102;2023-04-06T06:22:57;13.82;;;7.13;;
70757;SDS011;59316;52.964;7.102;2023-04-06T06:28:18;15.25;;;8.05;;
70757;SDS011;59316;52.964;7.102;2023-04-06T06:33:40;15.13;;;7.43;;
70757;SDS011;59316;52.964;7.102;2023-04-06T06:39:01;13.32;;;6.95;;
70757;SDS011;59316;52.964;7.102;2023-04-06T06:44:23;11.80;;;7.20;;
70757;SDS011;59316;52.964;7.102;2023-04-06T06:49:45;12.70;;;7.38;;
70757;SDS011;59316;52.964;7.102;2023-04-06T06:55:07;10.68;;;6.65;;
70757;SDS011;59316;52.964;7.102;2023-04-06T07:00:30;10.57;;;6.93;;
70757;SDS011;59316;52.964;7.102;2023-04-06T07:05:52;11.98;;;6.95;;
70757;SDS011;59316;52.964;7.102;2023-04-06T07:11:16;11.13;;;7.07;;
70757;SDS011;59316;52.964;7.102;2023-04-06T07:16:38;11.13;;;7.30;;
70757;SDS011;59316;52.964;7.102;2023-04-06T07:21:59;12.38;;;7.13;;
70757;SDS011;59316;52.964;7.102;2023-04-06T07:27:21;11.40;;;6.53;;
70757;SDS011;59316;52.964;7.102;2023-04-06T07:32:43;9.88;;;6.65;;
70757;SDS011;59316;52.964;7.102;2023-04-06T07:38:04;12.80;;;6.95;;
70757;SDS011;59316;52.964;7.102;2023-04-06T07:43:27;12.38;;;7.30;;
70757;SDS011;59316;52.964;7.102;2023-04-06T07:48:49;9.48;;;7.22;;
70757;SDS011;59316;52.964;7.102;2023-04-06T07:54:10;10.55;;;7.25;;
70757;SDS011;59316;52.964;7.102;2023-04-06T07:59:32;9.60;;;6.57;;
70757;SDS011;59316;52.964;7.102;2023-04-06T08:04:53;12.60;;;6.85;;
70757;SDS011;59316;52.964;7.102;2023-04-06T08:10:15;9.95;;;6.57;;
70757;SDS011;59316;52.964;7.102;2023-04-06T08:15:37;10.30;;;6.78;;
70757;SDS011;59316;52.964;7.102;2023-04-06T08:20:58;11.25;;;7.53;;
70757;SDS011;59316;52.964;7.102;2023-04-06T08:26:20;10.65;;;7.40;;
70757;SDS011;59316;52.964;7.102;2023-04-06T08:31:41;10.55;;;7.10;;
70757;SDS011;59316;52.964;7.102;2023-04-06T08:37:03;10.15;;;7.53;;
70757;SDS011;59316;52.964;7.102;2023-04-06T08:42:25;12.93;;;7.63;;
70757;SDS011;59316;52.964;7.102;2023-04-06T08:47:51;11.20;;;7.28;;
70757;SDS011;59316;52.964;7.102;2023-04-06T08:53:13;11.32;;;7.70;;
70757;SDS011;59316;52.964;7.102;2023-04-06T08:58:35;12.15;;;7.78;;
70757;SDS011;59316;52.964;7.102;2023-04-06T09:04:00;12.32;;;7.05;;
70757;SDS011;59316;52.964;7.102;2023-04-06T09:09:23;11.60;;;7.63;;
70757;SDS011;59316;52.964;7.102;2023-04-06T09:14:44;13.13;;;7.47;;
70757;SDS011;59316;52.964;7.102;2023-04-06T09:20:06;11.15;;;7.05;;
70757;SDS011;59316;52.964;7.102;2023-04-06T09:25:27;11.02;;;6.97;;
70757;SDS011;59316;52.964;7.102;2023-04-06T09:30:49;11.35;;;7.45;;
70757;SDS011;59316;52.964;7.102;2023-04-06T09:36:11;11.10;;;7.32;;
70757;SDS011;59316;52.964;7.102;2023-04-06T09:41:34;12.27;;;7.85;;
70757;SDS011;59316;52.964;7.102;2023-04-06T09:46:56;13.57;;;8.57;;
70757;SDS011;59316;52.964;7.102;2023-04-06T09:52:20;16.27;;;7.85;;
70757;SDS011;59316;52.964;7.102;2023-04-06T10:03:34;13.10;;;8.38;;
70757;SDS011;59316;52.964;7.102;2023-04-06T10:09:00;15.00;;;9.10;;
70757;SDS011;59316;52.964;7.102;2023-04-06T10:14:25;14.20;;;9.50;;
70757;SDS011;59316;52.964;7.102;2023-04-06T10:19:52;17.33;;;9.90;;
70757;SDS011;59316;52.964;7.102;2023-04-06T10:25:31;14.95;;;9.50;;
70757;SDS011;59316;52.964;7.102;2023-04-06T10:30:59;17.25;;;10.63;;
70757;SDS011;59316;52.964;7.102;2023-04-06T10:36:26;17.60;;;11.57;;
70757;SDS011;59316;52.964;7.102;2023-04-06T10:41:52;17.25;;;11.18;;
70757;SDS011;59316;52.964;7.102;2023-04-06T10:47:17;21.77;;;12.50;;
70757;SDS011;59316;52.964;7.102;2023-04-06T10:52:39;23.42;;;12.77;;
70757;SDS011;59316;52.964;7.102;2023-04-06T10:58:00;21.00;;;11.57;;
70757;SDS011;59316;52.964;7.102;2023-04-06T11:03:22;23.15;;;13.20;;
70757;SDS011;59316;52.964;7.102;2023-04-06T11:08:44;21.40;;;12.82;;
70757;SDS011;59316;52.964;7.102;2023-04-06T11:14:05;26.00;;;13.48;;
70757;SDS011;59316;52.964;7.102;2023-04-06T11:19:27;20.45;;;12.88;;
70757;SDS011;59316;52.964;7.102;2023-04-06T11:24:48;20.65;;;13.32;;
70757;SDS011;59316;52.964;7.102;2023-04-06T11:30:10;24.58;;;13.38;;
70757;SDS011;59316;52.964;7.102;2023-04-06T11:35:33;23.88;;;13.50;;
70757;SDS011;59316;52.964;7.102;2023-04-06T11:40:54;23.50;;;13.95;;
70757;SDS011;59316;52.964;7.102;2023-04-06T11:46:19;21.20;;;13.15;;
70757;SDS011;59316;52.964;7.102;2023-04-06T11:51:41;24.42;;;14.05;;
70757;SDS011;59316;52.964;7.102;2023-04-06T11:57:03;22.50;;;14.48;;
70757;SDS011;59316;52.964;7.102;2023-04-06T12:02:25;24.93;;;14.27;;
70757;SDS011;59316;52.964;7.102;2023-04-06T12:07:47;25.02;;;15.00;;
70757;SDS011;59316;52.964;7.102;2023-04-06T12:13:08;29.45;;;16.23;;
70757;SDS011;59316;52.964;7.102;2023-04-06T12:18:30;22.65;;;14.40;;
70757;SDS011;59316;52.964;7.102;2023-04-06T12:23:51;23.85;;;13.60;;
70757;SDS011;59316;52.964;7.102;2023-04-06T12:29:13;30.33;;;15.38;;
70757;SDS011;59316;52.964;7.102;2023-04-06T12:34:34;24.02;;;14.77;;
70757;SDS011;59316;52.964;7.102;2023-04-06T12:39:56;25.85;;;15.10;;
70757;SDS011;59316;52.964;7.102;2023-04-06T12:45:18;22.02;;;14.80;;
70757;SDS011;59316;52.964;7.102;2023-04-06T12:50:39;25.05;;;16.15;;
70757;SDS011;59316;52.964;7.102;2023-04-06T12:56:01;25.63;;;15.48;;
70757;SDS011;59316;52.964;7.102;2023-04-06T13:01:32;24.30;;;15.45;;
70757;SDS011;59316;52.964;7.102;2023-04-06T13:06:53;23.95;;;15.05;;
70757;SDS011;59316;52.964;7.102;2023-04-06T13:12:15;25.10;;;15.13;;
70757;SDS011;59316;52.964;7.102;2023-04-06T13:17:37;31.20;;;17.40;;
70757;SDS011;59316;52.964;7.102;2023-04-06T13:22:58;24.73;;;15.13;;
70757;SDS011;59316;52.964;7.102;2023-04-06T13:28:20;25.58;;;15.77;;
70757;SDS011;59316;52.964;7.102;2023-04-06T13:33:42;25.50;;;15.15;;
70757;SDS011;59316;52.964;7.102;2023-04-06T13:39:03;29.70;;;16.95;;
70757;SDS011;59316;52.964;7.102;2023-04-06T13:44:25;26.88;;;15.65;;
70757;SDS011;59316;52.964;7.102;2023-04-06T13:49:49;26.27;;;15.63;;
70757;SDS011;59316;52.964;7.102;2023-04-06T13:55:11;28.17;;;15.15;;
70757;SDS011;59316;52.964;7.102;2023-04-06T14:00:33;28.13;;;16.13;;
70757;SDS011;59316;52.964;7.102;2023-04-06T14:05:54;28.33;;;15.02;;
70757;SDS011;59316;52.964;7.102;2023-04-06T14:11:20;26.77;;;14.75;;
70757;SDS011;59316;52.964;7.102;2023-04-06T14:16:42;26.98;;;15.45;;
70757;SDS011;59316;52.964;7.102;2023-04-06T14:22:04;35.25;;;16.00;;
70757;SDS011;59316;52.964;7.102;2023-04-06T14:27:25;27.15;;;15.23;;
70757;SDS011;59316;52.964;7.102;2023-04-06T14:32:47;26.17;;;14.77;;
70757;SDS011;59316;52.964;7.102;2023-04-06T14:38:08;28.65;;;15.00;;
70757;SDS011;59316;52.964;7.102;2023-04-06T14:43:30;27.38;;;16.20;;
70757;SDS011;59316;52.964;7.102;2023-04-06T14:48:54;30.77;;;16.20;;
70757;SDS011;59316;52.964;7.102;2023-04-06T14:54:16;27.65;;;15.70;;
70757;SDS011;59316;52.964;7.102;2023-04-06T14:59:38;27.65;;;14.50;;
70757;SDS011;59316;52.964;7.102;2023-04-06T15:04:59;28.80;;;14.85;;
70757;SDS011;59316;52.964;7.102;2023-04-06T15:10:21;28.02;;;14.93;;
70757;SDS011;59316;52.964;7.102;2023-04-06T15:15:43;29.50;;;15.40;;
70757;SDS011;59316;52.964;7.102;2023-04-06T15:21:05;24.83;;;13.55;;
70757;SDS011;59316;52.964;7.102;2023-04-06T15:26:27;25.40;;;13.57;;
70757;SDS011;59316;52.964;7.102;2023-04-06T15:31:49;23.63;;;12.50;;
70757;SDS011;59316;52.964;7.102;2023-04-06T15:37:10;21.92;;;11.43;;
70757;SDS011;59316;52.964;7.102;2023-04-06T15:42:32;20.50;;;11.90;;
70757;SDS011;59316;52.964;7.102;2023-04-06T15:47:53;21.60;;;12.50;;
70757;SDS011;59316;52.964;7.102;2023-04-06T15:53:15;21.15;;;11.85;;
70757;SDS011;59316;52.964;7.102;2023-04-06T15:58:37;21.30;;;12.27;;
70757;SDS011;59316;52.964;7.102;2023-04-06T16:03:58;22.42;;;12.13;;
70757;SDS011;59316;52.964;7.102;2023-04-06T16:09:19;22.35;;;10.75;;
70757;SDS011;59316;52.964;7.102;2023-04-06T16:14:41;24.10;;;12.10;;
70757;SDS011;59316;52.964;7.102;2023-04-06T16:20:02;22.52;;;10.70;;
70757;SDS011;59316;52.964;7.102;2023-04-06T16:25:24;20.52;;;10.57;;
70757;SDS011;59316;52.964;7.102;2023-04-06T16:30:46;18.40;;;10.45;;
70757;SDS011;59316;52.964;7.102;2023-04-06T16:36:07;18.85;;;9.77;;
70757;SDS011;59316;52.964;7.102;2023-04-06T16:41:30;16.70;;;9.50;;
70757;SDS011;59316;52.964;7.102;2023-04-06T16:46:52;18.02;;;10.35;;
70757;SDS011;59316;52.964;7.102;2023-04-06T16:52:13;20.10;;;10.65;;
70757;SDS011;59316;52.964;7.102;2023-04-06T16:57:35;20.17;;;11.10;;
70757;SDS011;59316;52.964;7.102;2023-04-06T17:02:57;20.02;;;10.65;;
70757;SDS011;59316;52.964;7.102;2023-04-06T17:08:18;21.90;;;12.05;;
70757;SDS011;59316;52.964;7.102;2023-04-06T17:13:41;23.58;;;11.40;;
70757;SDS011;59316;52.964;7.102;2023-04-06T17:19:03;21.73;;;11.80;;
70757;SDS011;59316;52.964;7.102;2023-04-06T17:24:25;24.27;;;12.05;;
70757;SDS011;59316;52.964;7.102;2023-04-06T17:29:46;26.70;;;12.55;;
70757;SDS011;59316;52.964;7.102;2023-04-06T17:35:09;26.45;;;12.48;;
70757;SDS011;59316;52.964;7.102;2023-04-06T17:40:30;25.83;;;14.20;;
70757;SDS011;59316;52.964;7.102;2023-04-06T17:45:52;27.58;;;13.98;;
70757;SDS011;59316;52.964;7.102;2023-04-06T17:51:13;29.08;;;13.68;;
70757;SDS011;59316;52.964;7.102;2023-04-06T17:56:35;26.88;;;13.63;;
70757;SDS011;59316;52.964;7.102;2023-04-06T18:01:57;29.08;;;13.75;;
70757;SDS011;59316;52.964;7.102;2023-04-06T18:07:18;30.02;;;14.60;;
70757;SDS011;59316;52.964;7.102;2023-04-06T18:12:40;30.42;;;14.95;;
70757;SDS011;59316;52.964;7.102;2023-04-06T18:18:01;31.10;;;15.52;;
70757;SDS011;59316;52.964;7.102;2023-04-06T18:23:23;30.63;;;15.30;;
70757;SDS011;59316;52.964;7.102;2023-04-06T18:28:45;37.40;;;16.90;;
70757;SDS011;59316;52.964;7.102;2023-04-06T18:34:07;33.22;;;16.40;;
70757;SDS011;59316;52.964;7.102;2023-04-06T18:39:29;33.78;;;16.13;;
70757;SDS011;59316;52.964;7.102;2023-04-06T18:44:50;35.17;;;17.00;;
70757;SDS011;59316;52.964;7.102;2023-04-06T18:50:12;36.50;;;16.67;;
70757;SDS011;59316;52.964;7.102;2023-04-06T18:55:34;37.25;;;17.15;;
70757;SDS011;59316;52.964;7.102;2023-04-06T19:00:55;39.17;;;17.83;;
70757;SDS011;59316;52.964;7.102;2023-04-06T19:06:17;35.72;;;17.02;;
70757;SDS011;59316;52.964;7.102;2023-04-06T19:11:39;38.83;;;18.35;;
70757;SDS011;59316;52.964;7.102;2023-04-06T19:17:01;34.33;;;18.30;;
70757;SDS011;59316;52.964;7.102;2023-04-06T19:22:23;36.83;;;18.80;;
70757;SDS011;59316;52.964;7.102;2023-04-06T19:27:44;36.50;;;18.73;;
70757;SDS011;59316;52.964;7.102;2023-04-06T19:33:06;38.33;;;18.60;;
70757;SDS011;59316;52.964;7.102;2023-04-06T19:38:27;39.08;;;17.52;;
70757;SDS011;59316;52.964;7.102;2023-04-06T19:43:49;44.30;;;20.15;;
70757;SDS011;59316;52.964;7.102;2023-04-06T19:49:11;44.83;;;20.65;;
70757;SDS011;59316;52.964;7.102;2023-04-06T19:54:34;43.88;;;20.13;;
70757;SDS011;59316;52.964;7.102;2023-04-06T19:59:56;45.67;;;20.33;;
70757;SDS011;59316;52.964;7.102;2023-04-06T20:05:17;42.33;;;20.33;;
70757;SDS011;59316;52.964;7.102;2023-04-06T20:10:39;43.53;;;21.45;;
70757;SDS011;59316;52.964;7.102;2023-04-06T20:16:01;48.15;;;22.25;;
70757;SDS011;59316;52.964;7.102;2023-04-06T20:21:23;45.03;;;21.63;;
70757;SDS011;59316;52.964;7.102;2023-04-06T20:26:44;48.33;;;22.60;;
70757;SDS011;59316;52.964;7.102;2023-04-06T20:32:06;37.33;;;18.80;;
70757;SDS011;59316;52.964;7.102;2023-04-06T20:37:28;36.88;;;18.08;;
70757;SDS011;59316;52.964;7.102;2023-04-06T20:42:49;35.15;;;17.38;;
70757;SDS011;59316;52.964;7.102;2023-04-06T20:48:14;36.03;;;18.10;;
70757;SDS011;59316;52.964;7.102;2023-04-06T20:53:36;33.75;;;17.15;;
70757;SDS011;59316;52.964;7.102;2023-04-06T20:58:57;34.20;;;16.63;;
70757;SDS011;59316;52.964;7.102;2023-04-06T21:04:19;30.23;;;15.25;;
70757;SDS011;59316;52.964;7.102;2023-04-06T21:09:41;31.77;;;16.30;;
70757;SDS011;59316;52.964;7.102;2023-04-06T21:15:02;37.63;;;16.85;;
70757;SDS011;59316;52.964;7.102;2023-04-06T21:20:25;36.38;;;18.48;;
70757;SDS011;59316;52.964;7.102;2023-04-06T21:25:46;35.70;;;17.95;;
70757;SDS011;59316;52.964;7.102;2023-04-06T21:31:07;41.78;;;19.00;;
70757;SDS011;59316;52.964;7.102;2023-04-06T21:36:29;37.42;;;18.05;;
70757;SDS011;59316;52.964;7.102;2023-04-06T21:41:51;33.55;;;17.17;;
70757;SDS011;59316;52.964;7.102;2023-04-06T21:47:12;32.90;;;16.40;;
70757;SDS011;59316;52.964;7.102;2023-04-06T21:52:34;32.28;;;16.30;;
70757;SDS011;59316;52.964;7.102;2023-04-06T21:57:55;33.47;;;15.77;;
70757;SDS011;59316;52.964;7.102;2023-04-06T22:03:17;30.70;;;15.15;;
70757;SDS011;59316;52.964;7.102;2023-04-06T22:08:38;30.10;;;15.45;;
70757;SDS011;59316;52.964;7.102;2023-04-06T22:14:00;26.33;;;14.18;;
70757;SDS011;59316;52.964;7.102;2023-04-06T22:19:22;30.42;;;15.95;;
70757;SDS011;59316;52.964;7.102;2023-04-06T22:24:43;30.08;;;15.48;;
70757;SDS011;59316;52.964;7.102;2023-04-06T22:30:05;30.95;;;14.90;;
70757;SDS011;59316;52.964;7.102;2023-04-06T22:35:27;27.10;;;14.55;;
70757;SDS011;59316;52.964;7.102;2023-04-06T22:40:49;32.28;;;15.65;;
70757;SDS011;59316;52.964;7.102;2023-04-06T22:46:10;28.95;;;15.10;;
70757;SDS011;59316;52.964;7.102;2023-04-06T22:51:32;28.92;;;15.80;;
70757;SDS011;59316;52.964;7.102;2023-04-06T22:56:53;29.67;;;15.85;;
70757;SDS011;59316;52.964;7.102;2023-04-06T23:02:15;35.63;;;16.77;;
70757;SDS011;59316;52.964;7.102;2023-04-06T23:07:36;31.50;;;15.85;;
70757;SDS011;59316;52.964;7.102;2023-04-06T23:12:58;28.85;;;15.60;;
70757;SDS011;59316;52.964;7.102;2023-04-06T23:18:20;31.73;;;16.20;;
70757;SDS011;59316;52.964;7.102;2023-04-06T23:23:41;28.92;;;14.88;;
70757;SDS011;59316;52.964;7.102;2023-04-06T23:29:03;26.55;;;14.32;;
70757;SDS011;59316;52.964;7.102;2023-04-06T23:34:24;30.25;;;14.57;;
70757;SDS011;59316;52.964;7.102;2023-04-06T23:39:46;28.73;;;14.85;;
70757;SDS011;59316;52.964;7.102;2023-04-06T23:45:07;25.17;;;14.45;;
70757;SDS011;59316;52.964;7.102;2023-04-06T23:50:29;28.98;;;14.55;;
70757;SDS011;59316;52.964;7.102;2023-04-06T23:55:50;27.80;;;15.02;;
